Weather at Guardiamarina Zañartu Airport

Public forecast

Using degrees Celsius for public forecast. Weather courtesy of forecast.io.

Current aviation weather report (METAR) for Guardiamarina Zañartu Airport

Report is more than 2 hours old.

Retrieved 2021/03/03 20:00 UTC (3 hours ago):

SCGZ 032000Z 05005KT 9999 SCT045 14/06 Q1017

Closest aviation forecast (TAF) to Guardiamarina Zañartu Airport

Closest forecast is Malvinas Argentinas Airport, 23.7 nm (43.9 km) WNW. Retrieved 2021/03/03 18:00 UTC (5 hours ago):

TAF SAWH 031700Z 0318/0418 VRB05KT 9999 SCT030 SCT100 TX14/0318Z TN06/0412Z BECMG 0323/0401 340010KT